createdAt,value
2017-10-12T00:00:15.378Z,7.43
2017-10-12T00:02:44.769Z,5.25
2017-10-12T00:05:13.026Z,4.35
2017-10-12T00:07:42.079Z,5.93
2017-10-12T00:10:10.368Z,6.78
2017-10-12T00:12:38.629Z,8.23
2017-10-12T00:15:06.938Z,5.25
2017-10-12T00:17:35.966Z,5.05
2017-10-12T00:20:04.999Z,6.28
2017-10-12T00:22:33.298Z,7.43
2017-10-12T00:25:01.565Z,4.87
2017-10-12T00:27:29.874Z,4.90
2017-10-12T00:29:58.150Z,5.60
2017-10-12T00:32:26.418Z,8.00
2017-10-12T00:34:54.699Z,5.78
2017-10-12T00:37:22.970Z,10.38
2017-10-12T00:39:51.276Z,7.65
2017-10-12T00:42:19.551Z,4.90
2017-10-12T00:44:47.811Z,5.70
2017-10-12T00:47:16.099Z,6.22
2017-10-12T00:49:44.423Z,5.03
2017-10-12T00:52:12.691Z,8.82
2017-10-12T00:54:40.959Z,6.87
2017-10-12T00:57:09.238Z,6.03
2017-10-12T00:59:37.508Z,6.73
2017-10-12T01:02:05.788Z,5.12
2017-10-12T01:04:34.823Z,7.82
2017-10-12T01:07:03.132Z,9.52
2017-10-12T01:09:31.420Z,5.43
2017-10-12T01:11:59.683Z,6.10
2017-10-12T01:14:27.984Z,9.13
2017-10-12T01:16:56.251Z,6.90
2017-10-12T01:19:24.645Z,5.50
2017-10-12T01:21:53.691Z,6.80
2017-10-12T01:24:21.951Z,8.00
2017-10-12T01:26:50.239Z,6.10
2017-10-12T01:29:18.504Z,8.83
2017-10-12T01:31:47.567Z,6.20
2017-10-12T01:34:15.834Z,8.55
2017-10-12T01:36:44.101Z,6.20
2017-10-12T01:39:12.382Z,8.98
2017-10-12T01:41:40.643Z,6.82
2017-10-12T01:44:08.933Z,9.88
2017-10-12T01:46:37.252Z,7.53
2017-10-12T01:49:06.286Z,6.37
2017-10-12T01:51:34.555Z,10.75
2017-10-12T01:54:02.840Z,6.97
2017-10-12T01:56:31.108Z,8.65
2017-10-12T01:58:59.394Z,8.00
2017-10-12T02:01:27.672Z,7.80
2017-10-12T02:03:55.930Z,8.75
2017-10-12T02:06:24.219Z,8.05
2017-10-12T02:08:52.483Z,7.33
2017-10-12T02:11:20.762Z,9.05
2017-10-12T02:13:49.087Z,10.13
2017-10-12T02:16:17.375Z,8.57
2017-10-12T02:18:45.639Z,9.02
2017-10-12T02:21:13.975Z,6.18
2017-10-12T02:23:42.238Z,8.10
2017-10-12T02:26:10.507Z,10.77
2017-10-12T02:28:38.795Z,8.57
2017-10-12T02:31:07.064Z,7.32
2017-10-12T02:33:35.363Z,7.35
2017-10-12T02:36:03.634Z,9.45
2017-10-12T02:38:31.902Z,9.30
2017-10-12T02:41:00.196Z,7.95
2017-10-12T02:43:28.455Z,9.37
2017-10-12T02:45:56.927Z,7.40
2017-10-12T02:48:25.212Z,7.00
2017-10-12T02:50:54.241Z,8.10
2017-10-12T02:53:22.540Z,7.47
2017-10-12T02:55:52.164Z,8.30
2017-10-12T02:58:20.439Z,5.77
2017-10-12T03:00:48.703Z,8.23
2017-10-12T03:03:16.992Z,7.75
2017-10-12T03:05:45.257Z,5.90
2017-10-12T03:08:13.527Z,8.02
2017-10-12T03:10:41.807Z,6.70
2017-10-12T03:13:10.842Z,8.10
2017-10-12T03:15:39.123Z,8.20
2017-10-12T03:18:07.395Z,6.83
2017-10-12T03:20:35.682Z,7.57
2017-10-12T03:23:04.710Z,6.00
2017-10-12T03:25:33.202Z,6.32
2017-10-12T03:28:01.477Z,5.57
2017-10-12T03:30:30.556Z,7.12
2017-10-12T03:33:00.559Z,7.12
2017-10-12T03:35:29.599Z,8.05
2017-10-12T03:37:57.868Z,9.05
2017-10-12T03:40:26.171Z,7.93
2017-10-12T03:42:55.195Z,6.00
2017-10-12T03:45:23.458Z,7.83
2017-10-12T03:47:51.750Z,6.50
2017-10-12T03:50:20.018Z,10.20
2017-10-12T03:52:49.072Z,8.55
2017-10-12T03:55:17.335Z,8.17
2017-10-12T03:57:45.643Z,6.50
2017-10-12T04:00:13.919Z,10.38
2017-10-12T04:02:42.202Z,8.52
2017-10-12T04:05:10.479Z,6.80
2017-10-12T04:07:38.746Z,6.40
2017-10-12T04:10:07.223Z,7.60
2017-10-12T04:12:35.492Z,7.25
2017-10-12T04:15:04.518Z,6.68
2017-10-12T04:17:32.809Z,6.72
2017-10-12T04:20:01.070Z,5.85
2017-10-12T04:22:29.379Z,7.33
2017-10-12T04:24:57.638Z,5.80
2017-10-12T04:27:25.909Z,8.55
2017-10-12T04:29:54.308Z,6.82
2017-10-12T04:32:22.575Z,6.95
2017-10-12T04:34:50.895Z,6.32
2017-10-12T04:37:19.159Z,5.25
2017-10-12T04:39:47.426Z,5.87
2017-10-12T04:42:15.710Z,6.32
2017-10-12T04:44:43.971Z,7.53
2017-10-12T04:47:12.471Z,9.20
2017-10-12T04:49:40.740Z,5.78
2017-10-12T04:52:09.766Z,6.37
2017-10-12T04:54:38.051Z,8.02
2017-10-12T04:57:06.322Z,6.57
2017-10-12T04:59:34.639Z,7.43
2017-10-12T05:02:02.911Z,6.10
2017-10-12T05:04:31.186Z,5.65
2017-10-12T05:06:59.471Z,10.47
2017-10-12T05:09:29.247Z,8.82
2017-10-12T05:11:57.544Z,8.38
2017-10-12T05:14:26.570Z,7.68
2017-10-12T05:16:54.850Z,8.85
2017-10-12T05:19:23.122Z,7.93
2017-10-12T05:21:51.392Z,8.70
2017-10-12T05:24:19.712Z,6.75
2017-10-12T05:26:47.985Z,5.53
2017-10-12T05:29:16.257Z,8.03
2017-10-12T05:31:44.543Z,5.18
2017-10-12T05:34:12.813Z,6.53
2017-10-12T05:36:41.867Z,10.15
2017-10-12T05:39:10.134Z,7.30
2017-10-12T05:41:38.443Z,9.27
2017-10-12T05:44:06.715Z,6.10
2017-10-12T05:46:34.975Z,8.13
2017-10-12T05:49:03.259Z,8.10
2017-10-12T05:51:31.542Z,6.45
2017-10-12T05:53:59.839Z,7.28
2017-10-12T05:56:28.129Z,8.43
2017-10-12T05:58:56.382Z,5.93
2017-10-12T06:01:24.663Z,8.48
2017-10-12T06:03:52.927Z,6.25
2017-10-12T06:06:21.224Z,6.47
2017-10-12T06:08:50.255Z,7.75
2017-10-12T06:11:18.530Z,6.15
2017-10-12T06:13:46.815Z,6.35
2017-10-12T06:16:15.083Z,9.77
2017-10-12T06:18:43.399Z,8.70
2017-10-12T06:21:11.667Z,9.43
2017-10-12T06:23:39.929Z,7.50
2017-10-12T06:26:08.210Z,5.55
2017-10-12T06:28:36.480Z,7.03
2017-10-12T06:31:04.768Z,10.80
2017-10-12T06:33:33.795Z,6.32
2017-10-12T06:36:02.084Z,5.65
2017-10-12T06:38:30.394Z,7.00
2017-10-12T06:40:58.791Z,6.30
2017-10-12T06:43:27.058Z,6.75
2017-10-12T06:45:55.375Z,11.45
2017-10-12T06:48:23.638Z,6.28
2017-10-12T06:50:51.912Z,5.20
2017-10-12T06:53:20.198Z,7.18
2017-10-12T06:55:48.466Z,12.37
2017-10-12T06:58:16.738Z,6.95
2017-10-12T07:00:45.004Z,7.82
2017-10-12T07:03:13.286Z,5.10
2017-10-12T07:05:42.310Z,5.90
2017-10-12T07:08:10.604Z,5.18
2017-10-12T07:10:39.635Z,4.90
2017-10-12T07:13:07.920Z,6.43
2017-10-12T07:15:36.183Z,7.22
2017-10-12T07:18:04.468Z,5.78
2017-10-12T07:20:32.734Z,9.10
2017-10-12T07:23:01.803Z,4.35
2017-10-12T07:25:30.116Z,7.80
2017-10-12T07:27:58.378Z,5.80
2017-10-12T07:30:26.654Z,5.43
2017-10-12T07:32:54.919Z,4.55
2017-10-12T07:35:23.215Z,6.95
2017-10-12T07:37:51.487Z,4.40
2017-10-12T07:40:20.535Z,5.60
2017-10-12T07:42:48.808Z,6.15
2017-10-12T07:45:17.111Z,4.47
2017-10-12T07:47:45.383Z,5.33
2017-10-12T07:50:13.652Z,3.97
2017-10-12T07:52:41.935Z,4.45
2017-10-12T07:55:10.203Z,5.03
2017-10-12T07:57:38.492Z,5.30
2017-10-12T08:00:07.524Z,4.45
2017-10-12T08:02:36.022Z,3.67
2017-10-12T08:05:05.799Z,3.93
2017-10-12T08:07:34.063Z,4.97
2017-10-12T08:10:02.347Z,5.07
2017-10-12T08:12:30.615Z,3.92
2017-10-12T08:14:59.665Z,4.85
2017-10-12T08:17:27.931Z,6.25
2017-10-12T08:19:56.216Z,3.03
2017-10-12T08:22:25.247Z,4.43
2017-10-12T08:24:53.537Z,3.55
2017-10-12T08:27:21.812Z,3.00
2017-10-12T08:29:50.084Z,5.47
2017-10-12T08:32:19.131Z,3.33
2017-10-12T08:34:47.798Z,5.32
2017-10-12T08:37:16.087Z,5.03
2017-10-12T08:39:45.136Z,3.60
2017-10-12T08:42:13.463Z,4.60
2017-10-12T08:44:41.731Z,2.65
2017-10-12T08:47:10.008Z,3.20
2017-10-12T08:49:38.283Z,2.40
2017-10-12T08:52:06.560Z,4.10
2017-10-12T08:54:34.847Z,3.22
2017-10-12T08:57:03.870Z,3.62
2017-10-12T08:59:32.159Z,4.20
2017-10-12T09:02:00.419Z,7.25
2017-10-12T09:04:28.715Z,3.65
2017-10-12T09:06:57.761Z,2.45
2017-10-12T09:09:26.019Z,2.90
2017-10-12T09:11:54.294Z,3.90
2017-10-12T09:14:22.578Z,2.33
2017-10-12T09:16:51.651Z,3.17
2017-10-12T09:19:20.683Z,5.05
2017-10-12T09:21:48.974Z,4.32
2017-10-12T09:24:17.264Z,3.67
2017-10-12T09:26:45.572Z,2.47
2017-10-12T09:29:13.831Z,3.08
2017-10-12T09:31:42.138Z,4.45
2017-10-12T09:34:11.178Z,3.50
2017-10-12T09:36:39.447Z,4.40
2017-10-12T09:39:09.238Z,3.17
2017-10-12T09:41:39.018Z,2.70
2017-10-12T09:44:07.304Z,2.20
2017-10-12T09:46:35.563Z,3.00
2017-10-12T09:49:03.868Z,3.12
2017-10-12T09:51:32.167Z,3.50
2017-10-12T09:54:00.418Z,2.92
2017-10-12T09:56:28.695Z,3.15
2017-10-12T09:58:56.960Z,3.97
2017-10-12T10:01:25.259Z,3.30
2017-10-12T10:03:54.296Z,2.60
2017-10-12T10:06:22.786Z,3.67
2017-10-12T10:08:51.057Z,2.60
2017-10-12T10:11:19.323Z,3.10
2017-10-12T10:13:48.375Z,3.25
2017-10-12T10:16:16.662Z,3.15
2017-10-12T10:18:44.986Z,4.65
2017-10-12T10:21:13.255Z,2.10
2017-10-12T10:23:41.528Z,3.50
2017-10-12T10:26:09.808Z,2.67
2017-10-12T10:28:38.866Z,4.60
2017-10-12T10:31:07.151Z,2.87
2017-10-12T10:33:36.207Z,6.25
2017-10-12T10:36:04.516Z,2.40
2017-10-12T10:38:32.787Z,2.83
2017-10-12T10:41:01.063Z,3.53
2017-10-12T10:43:29.343Z,2.97
2017-10-12T10:45:57.615Z,2.03
2017-10-12T10:48:25.899Z,3.08
2017-10-12T10:50:54.922Z,2.60
2017-10-12T10:53:23.239Z,4.00
2017-10-12T10:55:52.270Z,3.10
2017-10-12T10:58:20.548Z,5.12
2017-10-12T11:00:48.851Z,3.90
2017-10-12T11:03:17.883Z,3.37
2017-10-12T11:05:46.166Z,3.95
2017-10-12T11:08:14.430Z,3.17
2017-10-12T11:10:43.483Z,3.58
2017-10-12T11:13:11.746Z,4.70
2017-10-12T11:15:40.151Z,6.47
2017-10-12T11:18:08.423Z,3.78
2017-10-12T11:20:36.691Z,3.40
2017-10-12T11:23:05.739Z,3.50
2017-10-12T11:25:34.007Z,2.10
2017-10-12T11:28:03.054Z,3.17
2017-10-12T11:30:31.326Z,3.07
2017-10-12T11:32:59.629Z,2.78
2017-10-12T11:35:27.907Z,5.68
2017-10-12T11:37:56.167Z,5.60
2017-10-12T11:40:24.457Z,3.70
2017-10-12T11:42:52.718Z,5.68
2017-10-12T11:45:20.998Z,3.30
2017-10-12T11:47:49.272Z,3.20
2017-10-12T11:50:18.328Z,2.35
2017-10-12T11:52:48.106Z,5.30
2017-10-12T11:55:16.410Z,2.35
2017-10-12T11:57:45.443Z,3.08
2017-10-12T12:00:13.719Z,4.55
2017-10-12T12:02:41.998Z,4.25
2017-10-12T12:05:11.039Z,5.12
2017-10-12T12:07:39.323Z,2.70
2017-10-12T12:10:07.596Z,4.50
2017-10-12T12:12:37.396Z,3.20
2017-10-12T12:15:07.171Z,3.90
2017-10-12T12:17:35.496Z,3.53
2017-10-12T12:20:03.759Z,2.78
2017-10-12T12:22:32.051Z,3.00
2017-10-12T12:25:00.336Z,2.72
2017-10-12T12:27:28.617Z,2.40
2017-10-12T12:29:57.662Z,2.80
2017-10-12T12:32:25.939Z,2.72
2017-10-12T12:34:54.238Z,3.47
2017-10-12T12:37:22.515Z,1.85
2017-10-12T12:39:50.791Z,5.25
2017-10-12T12:42:19.074Z,2.00
2017-10-12T12:44:47.343Z,5.65
2017-10-12T12:47:15.626Z,1.95
2017-10-12T12:49:44.671Z,2.30
2017-10-12T12:52:12.956Z,1.87
2017-10-12T12:54:41.227Z,3.13
2017-10-12T12:57:10.500Z,2.10
2017-10-12T12:59:39.539Z,2.75
2017-10-12T13:02:07.817Z,2.92
2017-10-12T13:04:36.112Z,2.22
2017-10-12T13:07:05.147Z,2.10
2017-10-12T13:09:33.435Z,3.17
2017-10-12T13:12:01.711Z,2.10
2017-10-12T13:14:30.858Z,2.17
2017-10-12T13:16:59.123Z,1.80
2017-10-12T13:19:27.395Z,1.90
2017-10-12T13:21:55.681Z,2.90
2017-10-12T13:24:24.715Z,1.80
2017-10-12T13:26:53.000Z,2.58
2017-10-12T13:29:21.271Z,2.30
2017-10-12T13:31:49.565Z,1.92
2017-10-12T13:34:18.327Z,4.93
2017-10-12T13:36:46.779Z,2.80
2017-10-12T13:39:15.814Z,2.07
2017-10-12T13:41:44.086Z,1.40
2017-10-12T13:44:12.499Z,1.50
2017-10-12T13:46:40.770Z,3.03
2017-10-12T13:49:09.046Z,2.47
2017-10-12T13:51:37.315Z,1.83
2017-10-12T13:54:05.612Z,2.92
2017-10-12T13:56:34.647Z,2.75
2017-10-12T13:59:02.932Z,3.15
2017-10-12T14:01:31.195Z,2.27
2017-10-12T14:03:59.511Z,2.33
2017-10-12T14:06:27.790Z,1.87
2017-10-12T14:08:56.047Z,2.00
2017-10-12T14:11:24.338Z,1.75
2017-10-12T14:13:52.602Z,2.00
2017-10-12T14:16:20.896Z,5.78
2017-10-12T14:18:49.930Z,1.73
2017-10-12T14:21:18.427Z,2.90
2017-10-12T14:23:46.703Z,3.60
2017-10-12T14:26:15.750Z,1.60
2017-10-12T14:28:44.022Z,2.40
2017-10-12T14:31:12.299Z,2.28
2017-10-12T14:33:41.363Z,1.90
2017-10-12T14:36:11.135Z,1.60
2017-10-12T14:38:39.637Z,2.90
2017-10-12T14:41:08.691Z,2.85
2017-10-12T14:43:36.952Z,1.65
2017-10-12T14:46:05.248Z,3.62
2017-10-12T14:48:34.283Z,1.85
2017-10-12T14:51:02.571Z,1.87
2017-10-12T14:53:30.843Z,2.87
2017-10-12T14:56:00.016Z,1.67
2017-10-12T14:58:28.292Z,3.55
2017-10-12T15:00:57.320Z,2.47
2017-10-12T15:03:25.607Z,1.80
2017-10-12T15:05:53.880Z,3.72
2017-10-12T15:08:22.174Z,1.90
2017-10-12T15:10:50.447Z,2.17
2017-10-12T15:13:18.767Z,2.15
2017-10-12T15:15:47.023Z,3.87
2017-10-12T15:18:15.292Z,2.50
2017-10-12T15:20:43.582Z,2.33
2017-10-12T15:23:11.847Z,2.47
2017-10-12T15:25:40.127Z,2.10
2017-10-12T15:28:08.401Z,2.65
2017-10-12T15:30:36.711Z,1.83
2017-10-12T15:33:05.739Z,3.60
2017-10-12T15:35:34.015Z,3.43
2017-10-12T15:38:02.303Z,3.33
2017-10-12T15:40:31.340Z,3.87
2017-10-12T15:42:59.623Z,5.15
2017-10-12T15:45:27.889Z,3.87
2017-10-12T15:47:56.179Z,3.28
2017-10-12T15:50:25.215Z,1.85
2017-10-12T15:52:53.484Z,3.78
2017-10-12T15:55:21.764Z,3.65
2017-10-12T15:57:50.040Z,3.30
2017-10-12T16:00:19.117Z,2.80
2017-10-12T16:02:48.142Z,3.55
2017-10-12T16:05:16.448Z,3.20
2017-10-12T16:07:45.478Z,3.45
2017-10-12T16:10:13.780Z,5.97
2017-10-12T16:12:42.460Z,2.87
2017-10-12T16:15:10.724Z,2.85
2017-10-12T16:17:39.863Z,2.90
2017-10-12T16:20:08.143Z,2.47
2017-10-12T16:23:05.703Z,3.55
2017-10-12T16:25:04.717Z,2.53
2017-10-12T16:27:33.132Z,2.60
2017-10-12T16:32:29.651Z,2.80
2017-10-12T16:34:57.976Z,2.73
2017-10-12T16:37:26.251Z,2.25
2017-10-12T16:39:54.542Z,7.10
2017-10-12T16:42:22.815Z,2.20
2017-10-12T16:44:51.099Z,2.97
2017-10-12T16:47:19.363Z,3.05
2017-10-12T16:49:47.928Z,4.15
2017-10-12T16:52:16.951Z,2.90
2017-10-12T16:54:45.215Z,3.20
2017-10-12T16:57:13.502Z,2.22
2017-10-12T16:59:41.766Z,3.85
2017-10-12T17:02:10.052Z,3.83
2017-10-12T17:04:38.315Z,2.62
2017-10-12T17:07:06.615Z,3.03
2017-10-12T17:09:34.884Z,4.20
2017-10-12T17:12:03.151Z,2.58
2017-10-12T17:14:31.431Z,2.58
2017-10-12T17:17:01.206Z,3.00
2017-10-12T17:19:29.492Z,3.45
2017-10-12T17:21:57.759Z,3.30
2017-10-12T17:24:26.844Z,2.50
2017-10-12T17:26:55.863Z,3.10
2017-10-12T17:29:24.127Z,3.87
2017-10-12T17:31:52.407Z,3.50
2017-10-12T17:34:20.680Z,3.35
2017-10-12T17:36:48.959Z,4.18
2017-10-12T17:39:17.999Z,3.47
2017-10-12T17:41:46.323Z,6.28
2017-10-12T17:44:14.596Z,2.90
2017-10-12T17:46:42.866Z,3.50
2017-10-12T17:49:11.150Z,3.65
2017-10-12T17:51:39.419Z,3.55
2017-10-12T17:54:36.927Z,3.47
2017-10-12T17:56:36.259Z,6.45
2017-10-12T18:01:34.319Z,3.95
2017-10-12T18:04:03.366Z,4.05
2017-10-12T18:06:31.651Z,4.32
2017-10-12T18:08:59.920Z,3.90
2017-10-12T18:11:28.196Z,5.57
2017-10-12T18:13:57.235Z,3.90
2017-10-12T18:16:25.536Z,6.72
2017-10-12T18:18:53.784Z,3.37
2017-10-12T18:21:22.356Z,3.27
2017-10-12T18:23:50.637Z,4.03
2017-10-12T18:26:19.660Z,3.73
2017-10-12T18:28:47.935Z,6.07
2017-10-12T18:31:16.207Z,3.85
2017-10-12T18:33:47.103Z,4.35
2017-10-12T18:36:15.371Z,4.10
2017-10-12T18:38:43.672Z,9.63
2017-10-12T18:41:12.703Z,4.53
2017-10-12T18:43:40.963Z,4.30
2017-10-12T18:46:09.255Z,3.83
2017-10-12T18:48:39.032Z,4.57
2017-10-12T18:51:07.315Z,4.43
2017-10-12T18:53:35.579Z,3.90
2017-10-12T18:56:03.898Z,5.37
2017-10-12T18:58:32.181Z,3.92
2017-10-12T19:01:00.453Z,4.35
2017-10-12T19:03:28.760Z,7.05
2017-10-12T19:05:57.770Z,4.70
2017-10-12T19:08:26.062Z,4.47
2017-10-12T19:10:54.364Z,3.90
2017-10-12T19:13:22.647Z,4.07
2017-10-12T19:15:51.001Z,4.50
2017-10-12T19:18:19.309Z,6.32
2017-10-12T19:20:47.580Z,5.28
2017-10-12T19:23:15.852Z,4.87
2017-10-12T19:25:44.895Z,4.62
2017-10-12T19:28:42.280Z,4.75
2017-10-12T19:30:41.440Z,4.22
2017-10-12T19:33:09.714Z,3.67
2017-10-12T19:38:07.051Z,5.10
2017-10-12T19:40:36.082Z,5.53
2017-10-12T19:43:04.363Z,6.10
2017-10-12T19:45:32.644Z,5.80
2017-10-12T19:48:00.925Z,7.97
2017-10-12T19:50:30.024Z,4.10
2017-10-12T19:52:58.352Z,5.57
2017-10-12T19:55:26.616Z,5.05
2017-10-12T19:57:55.659Z,4.33
2017-10-12T20:00:23.946Z,4.83
2017-10-12T20:02:53.719Z,7.45
2017-10-12T20:05:22.003Z,6.37
2017-10-12T20:07:50.270Z,5.87
2017-10-12T20:10:18.664Z,6.05
2017-10-12T20:12:46.931Z,5.13
2017-10-12T20:15:15.194Z,6.20
2017-10-12T20:17:43.484Z,6.87
2017-10-12T20:20:11.761Z,9.75
2017-10-12T20:22:40.031Z,7.62
2017-10-12T20:25:08.311Z,4.82
2017-10-12T20:27:37.362Z,5.82
2017-10-12T20:30:05.787Z,5.90
2017-10-12T20:32:34.307Z,5.37
2017-10-12T20:35:02.580Z,7.35
2017-10-12T20:37:31.606Z,6.03
2017-10-12T20:39:59.892Z,5.45
2017-10-12T20:42:28.163Z,5.10
2017-10-12T20:44:56.443Z,5.00
2017-10-12T20:47:25.478Z,5.00
2017-10-12T20:49:53.784Z,6.83
2017-10-12T20:52:22.816Z,6.62
2017-10-12T20:57:19.370Z,4.87
2017-10-12T20:59:47.644Z,8.20
2017-10-12T21:04:44.186Z,4.87
2017-10-12T21:07:12.495Z,5.62
2017-10-12T21:09:40.784Z,6.15
2017-10-12T21:12:09.047Z,4.93
2017-10-12T21:14:38.095Z,5.00
2017-10-12T21:17:06.365Z,6.18
2017-10-12T21:19:36.163Z,7.60
2017-10-12T21:22:04.435Z,6.00
2017-10-12T21:24:32.766Z,6.25
2017-10-12T21:27:01.899Z,7.18
2017-10-12T21:29:30.919Z,4.68
2017-10-12T21:31:59.198Z,4.97
2017-10-12T21:34:27.473Z,4.80
2017-10-12T21:36:57.258Z,4.63
2017-10-12T21:39:25.528Z,6.72
2017-10-12T21:41:53.819Z,4.30
2017-10-12T21:44:22.846Z,9.50
2017-10-12T21:46:51.163Z,4.78
2017-10-12T21:49:20.219Z,5.60
2017-10-12T21:51:48.483Z,5.85
2017-10-12T21:54:16.767Z,7.90
2017-10-12T21:56:45.804Z,7.03
2017-10-12T21:59:14.110Z,8.00
2017-10-12T22:01:43.139Z,6.85
2017-10-12T22:04:11.419Z,6.28
2017-10-12T22:06:39.692Z,6.45
2017-10-12T22:09:07.957Z,6.90
2017-10-12T22:11:37.003Z,9.45
2017-10-12T22:14:05.271Z,5.15
2017-10-12T22:16:33.564Z,8.48
2017-10-12T22:19:02.590Z,7.55
2017-10-12T22:21:30.875Z,5.17
2017-10-12T22:23:59.139Z,5.05
2017-10-12T22:26:27.425Z,10.68
2017-10-12T22:28:56.463Z,6.60
2017-10-12T22:31:24.743Z,6.33
2017-10-12T22:33:53.011Z,5.15
2017-10-12T22:36:21.290Z,4.70
2017-10-12T22:38:50.339Z,6.93
2017-10-12T22:41:18.630Z,4.97
2017-10-12T22:43:47.662Z,4.50
2017-10-12T22:46:15.931Z,6.60
2017-10-12T22:48:44.219Z,5.75
2017-10-12T22:51:12.491Z,6.85
2017-10-12T22:53:41.535Z,6.10
2017-10-12T22:56:09.802Z,9.90
2017-10-12T22:58:38.283Z,7.18
2017-10-12T23:01:06.546Z,5.65
2017-10-12T23:03:34.819Z,4.30
2017-10-12T23:06:03.872Z,6.72
2017-10-12T23:08:32.139Z,7.50
2017-10-12T23:11:00.415Z,4.47
2017-10-12T23:13:29.451Z,9.07
2017-10-12T23:15:57.731Z,4.70
2017-10-12T23:18:25.995Z,4.90
2017-10-12T23:20:54.310Z,7.53
2017-10-12T23:23:22.583Z,6.03
2017-10-12T23:25:50.845Z,8.17
2017-10-12T23:28:19.123Z,5.50
2017-10-12T23:30:47.390Z,7.43
2017-10-12T23:33:15.675Z,5.62
2017-10-12T23:35:44.710Z,8.20
2017-10-12T23:38:13.214Z,9.32
2017-10-12T23:40:41.483Z,6.82
2017-10-12T23:43:09.747Z,5.27
2017-10-12T23:45:38.791Z,4.40
2017-10-12T23:48:07.058Z,6.82
2017-10-12T23:50:35.341Z,11.60
2017-10-12T23:53:03.615Z,6.60
2017-10-12T23:55:32.688Z,6.00
2017-10-12T23:58:00.943Z,6.07
